Share

Adaton, MS

3:00 AM CDT on April 25, 2014 (GMT -0500)
Bryan (KSTF) Elev 331 ft | 33.43 °N, 88.85 °W | Change Station

Current weather conditions updated 5 minutes ago

Mostly Cloudy
Mostly Cloudy
63 °F
Feels Like 63 °F
N
5
Wind Variable Wind from West
Sunrise 6:13 AM
Sunset 7:33 PM
Moon Waning Crescent

Today is forecast to be Cooler than yesterday.

Pressure 29.84 in
Visibility 10.0 miles
Clouds Scattered Clouds 6000 ft
Mostly Cloudy 9000 ft
Dew Point 61 °F
Humidity 94%
Rainfall 0.03 in
Snow Depth Not available.
UV 0 out of 16
Pollen 8.10 out of 12
Air Quality Not available.
Flu Activity No Activity
METAR KSTF 250755Z AUTO 26004KT 10SM SCT060 BKN090 17/16 A2984 RMK AO2

More Conditions Fewer Conditions

Pressure 29.84 in
Visibility 10.0 miles
Clouds Scattered Clouds 6000 ft
Mostly Cloudy 9000 ft
Dew Point 61 °F
Humidity 94%
Rainfall 0.03 in
Snow Depth Not available.
UV 0 out of 16
Pollen 8.10 out of 12
Air Quality Not available.
Flu Activity No Activity
METAR KSTF 250755Z AUTO 26004KT 10SM SCT060 BKN090 17/16 A2984 RMK AO2

More Conditions Fewer Conditions

10-Day Weather Forecast

Almanac

Astronomy

Apr. 25, 2014 Rise Set
Actual Time 6:13 AM CDT 7:33 PM CDT
Civil Twilight 5:47 AM CDT 7:59 PM CDT
Nautical Twilight 5:16 AM CDT 8:31 PM CDT
Astronomical Twilight 4:43 AM CDT 9:03 PM CDT
Moon 3:49 AM CDT 4:06 PM CDT
Length of Visible Light 14h 12m
Length of Day
13h 20m
Tomorrow will be 1m 51s longer.
Waning Crescent, 18% of the Moon is Illuminated
Today
Waning Crescent
Apr 29
New
May 6
First Quarter
May 14
Full
May 21
Last Quarter

Today's Extremes

State Highs State Lows

Community

  • Deer in evening light
    Deer in evening light
  • Critter
    Critter
  • Jone Runs Falls
    Jone Runs Falls
  • Easter in Shenandoah National Park
    Easter in Shenandoah National Park
  • Sunset at Apalachicola Bay, Florida
    Sunset at Apalachicola Bay, Florida

WunderPhotos

Upload Photos

1,704,873 photos uploaded!

WunderBlogs® & News

Nearby

Snow Depth

Station Depth Elevation
No new snow has been reported.

Coastal Water Temperatures

Place Temperature
No Stations Reporting

Earthquake Activity

City Distance Mag. Time & Date
No recent earthquake activity has been reported nearby.
Minimum magnitude displayed is 2.5.

Nearby Weather Stations

Station Location Temp. Dew Point Humidity Wind Precip. Elev Updated Type
RAWS NOXUBEE - FTS MS, Starkville, MS 65 °F 65 °F 99% SW  at  2 mph 0.01 in / hr 350 ft 2:24 AM CDT MADIS
Tibbee Bluff, Columbus, MS 66.9 °F 62 °F 85% West  at  3.0 mph 0.00 in / hr 197 ft 3:00 AM CDT Normal
RAWS TOMBIGBEE MS, Ackerman, MS 64 °F 64 °F 99% NE  at  3 mph 0.00 in / hr 549 ft 2:00 AM CDT MADIS
Near Intersection of Hwys 82, Columbus, MS 65.7 °F 64 °F 94% SSW  at  4.0 mph 0.00 in / hr 154 ft 3:00 AM CDT Rapid Fire

Show More Stations Show Fewer Stations

What do you think?

We're not finished. Please let us know what you like, what you don't like, and what you are still missing.